createdAt,value
2019-04-20T00:00:56.170Z,12.40
2019-04-20T00:03:30.939Z,12.30
2019-04-20T00:06:01.330Z,12.20
2019-04-20T00:08:36.204Z,12.20
2019-04-20T00:11:12.675Z,12.20
2019-04-20T00:13:49.854Z,12.20
2019-04-20T00:16:11.052Z,12.10
2019-04-20T00:18:48.241Z,12.00
2019-04-20T00:21:33.896Z,12.00
2019-04-20T00:24:15.666Z,11.90
2019-04-20T00:27:08.504Z,11.80
2019-04-20T00:29:35.262Z,11.70
2019-04-20T00:32:02.574Z,11.60
2019-04-20T00:34:29.213Z,11.70
2019-04-20T00:36:56.029Z,11.70
2019-04-20T00:39:27.857Z,11.80
2019-04-20T00:42:04.404Z,11.60
2019-04-20T00:44:36.830Z,11.60
2019-04-20T00:47:18.082Z,11.50
2019-04-20T00:49:48.625Z,11.40
2019-04-20T00:52:27.610Z,11.40
2019-04-20T00:54:41.480Z,11.40
2019-04-20T00:57:22.253Z,11.30
2019-04-20T01:00:04.876Z,11.20
2019-04-20T01:02:32.394Z,11.20
2019-04-20T01:05:04.375Z,11.10
2019-04-20T01:07:46.811Z,11.10
2019-04-20T01:10:17.312Z,11.00
2019-04-20T01:12:53.928Z,10.90
2019-04-20T01:15:31.946Z,10.90
2019-04-20T01:17:53.841Z,10.80
2019-04-20T01:20:26.520Z,10.80
2019-04-20T01:23:01.883Z,10.80
2019-04-20T01:25:36.005Z,10.80
2019-04-20T01:28:24.490Z,10.70
2019-04-20T01:30:43.127Z,10.60
2019-04-20T01:33:25.868Z,10.50
2019-04-20T01:35:56.950Z,10.60
2019-04-20T01:38:30.728Z,10.60
2019-04-20T01:40:46.438Z,10.50
2019-04-20T01:43:18.345Z,10.40
2019-04-20T01:45:58.618Z,10.30
2019-04-20T01:48:27.444Z,10.30
2019-04-20T01:51:04.765Z,10.30
2019-04-20T01:53:58.478Z,10.30
2019-04-20T01:56:22.197Z,10.30
2019-04-20T01:59:23.048Z,10.20
2019-04-20T02:02:06.338Z,10.20
2019-04-20T02:04:45.122Z,10.20
2019-04-20T02:07:12.046Z,10.10
2019-04-20T02:09:49.904Z,10.00
2019-04-20T02:12:21.926Z,10.10
2019-04-20T02:14:52.227Z,10.00
2019-04-20T02:17:30.078Z,10.00
2019-04-20T02:20:12.050Z,10.00
2019-04-20T02:22:42.148Z,9.90
2019-04-20T02:24:59.441Z,9.90
2019-04-20T02:27:40.599Z,9.90
2019-04-20T02:30:32.514Z,9.90
2019-04-20T02:33:16.661Z,10.00
2019-04-20T02:36:15.144Z,10.00
2019-04-20T02:39:05.168Z,10.10
2019-04-20T02:41:20.138Z,10.10
2019-04-20T02:46:20.376Z,10.00
2019-04-20T02:49:04.597Z,10.20
2019-04-20T02:54:11.091Z,10.00
2019-04-20T02:59:25.091Z,9.90
2019-04-20T03:01:51.905Z,9.90
2019-04-20T03:04:06.991Z,9.90
2019-04-20T03:06:53.830Z,9.80
2019-04-20T03:09:34.958Z,9.70
2019-04-20T03:12:04.797Z,9.80
2019-04-20T03:14:29.214Z,9.70
2019-04-20T03:17:09.875Z,9.70
2019-04-20T03:19:31.381Z,9.70
2019-04-20T03:22:18.875Z,9.60
2019-04-20T03:24:59.262Z,9.60
2019-04-20T03:27:33.173Z,9.50
2019-04-20T03:31:18.411Z,9.50
2019-04-20T03:35:35.177Z,9.40
2019-04-20T03:38:04.668Z,9.40
2019-04-20T03:40:36.356Z,9.30
2019-04-20T03:42:50.695Z,9.20
2019-04-20T03:45:24.476Z,9.20
2019-04-20T03:48:07.485Z,9.20
2019-04-20T03:50:46.325Z,9.10
2019-04-20T03:53:22.859Z,9.00
2019-04-20T03:56:10.039Z,9.10
2019-04-20T03:58:55.519Z,9.20
2019-04-20T04:02:22.121Z,9.20
2019-04-20T04:04:56.235Z,9.10
2019-04-20T04:07:19.568Z,9.10
2019-04-20T04:10:00.337Z,9.10
2019-04-20T04:12:51.319Z,9.10
2019-04-20T04:15:23.112Z,9.10
2019-04-20T04:17:57.989Z,9.00
2019-04-20T04:20:33.029Z,9.00
2019-04-20T04:23:14.998Z,9.00
2019-04-20T04:25:47.511Z,9.00
2019-04-20T04:28:23.872Z,9.00
2019-04-20T04:30:59.924Z,8.90
2019-04-20T04:35:56.841Z,8.90
2019-04-20T04:38:37.730Z,8.80
2019-04-20T04:41:13.653Z,8.80
2019-04-20T04:43:38.936Z,8.80
2019-04-20T04:45:51.724Z,8.80
2019-04-20T04:48:29.886Z,8.80
2019-04-20T04:51:02.707Z,8.80
2019-04-20T04:53:43.069Z,8.90
2019-04-20T04:56:05.837Z,9.00
2019-04-20T04:58:32.001Z,9.00
2019-04-20T05:01:08.312Z,9.10
2019-04-20T05:03:58.183Z,9.30
2019-04-20T05:06:31.693Z,9.80
2019-04-20T05:08:53.051Z,10.10
2019-04-20T05:11:21.623Z,10.40
2019-04-20T05:13:58.310Z,10.80
2019-04-20T05:16:45.159Z,11.40
2019-04-20T05:19:19.035Z,12.00
2019-04-20T05:22:07.927Z,12.70
2019-04-20T05:24:59.089Z,13.40
2019-04-20T05:27:36.351Z,14.50
2019-04-20T05:29:46.733Z,15.60
2019-04-20T05:32:31.307Z,16.30
2019-04-20T05:35:14.633Z,17.10
2019-04-20T05:37:49.829Z,17.90
2019-04-20T05:40:16.238Z,18.30
2019-04-20T05:43:05.799Z,19.00
2019-04-20T05:45:33.954Z,20.00
2019-04-20T05:48:07.476Z,20.20
2019-04-20T05:50:46.868Z,20.00
2019-04-20T05:53:19.294Z,20.80
2019-04-20T05:55:53.206Z,20.90
2019-04-20T05:58:22.345Z,21.40
2019-04-20T06:01:00.220Z,21.90
2019-04-20T06:03:29.966Z,21.90
2019-04-20T06:06:05.088Z,22.70
2019-04-20T06:11:09.380Z,24.80
2019-04-20T06:13:56.890Z,25.50
2019-04-20T06:16:56.941Z,26.20
2019-04-20T06:19:31.990Z,26.40
2019-04-20T06:22:37.862Z,27.50
2019-04-20T06:25:33.519Z,26.90
2019-04-20T06:27:46.014Z,27.00
2019-04-20T06:30:11.122Z,27.60
2019-04-20T06:33:16.140Z,27.60
2019-04-20T06:35:51.609Z,28.10
2019-04-20T06:38:28.036Z,29.20
2019-04-20T06:43:14.118Z,29.50
2019-04-20T06:45:51.068Z,28.60
2019-04-20T06:48:33.721Z,27.60
2019-04-20T06:50:49.240Z,26.90
2019-04-20T06:53:39.039Z,28.00
2019-04-20T06:56:15.716Z,28.40
2019-04-20T06:59:08.344Z,29.60
2019-04-20T07:01:19.097Z,31.20
2019-04-20T07:04:02.104Z,31.80
2019-04-20T07:06:45.272Z,31.90
2019-04-20T07:09:06.412Z,32.00
2019-04-20T07:11:29.377Z,32.00
2019-04-20T07:13:50.547Z,31.60
2019-04-20T07:16:49.687Z,31.40
2019-04-20T07:19:22.631Z,31.40
2019-04-20T07:22:25.132Z,32.30
2019-04-20T07:27:29.523Z,32.30
2019-04-20T07:30:03.840Z,33.50
2019-04-20T07:32:43.201Z,34.00
2019-04-20T07:35:08.720Z,34.60
2019-04-20T07:40:30.224Z,34.00
2019-04-20T07:48:02.751Z,33.80
2019-04-20T07:50:27.939Z,33.60
2019-04-20T07:52:51.669Z,33.90
2019-04-20T07:58:01.640Z,34.90
2019-04-20T08:00:48.241Z,35.70
2019-04-20T08:03:29.720Z,36.00
2019-04-20T08:05:56.223Z,36.80
2019-04-20T08:08:32.745Z,37.50
2019-04-20T08:11:09.844Z,37.70
2019-04-20T08:13:51.413Z,37.90
2019-04-20T08:16:33.225Z,37.50
2019-04-20T08:18:53.817Z,39.20
2019-04-20T08:21:35.124Z,38.30
2019-04-20T08:24:02.582Z,36.90
2019-04-20T08:26:20.339Z,37.60
2019-04-20T08:29:15.434Z,37.30
2019-04-20T08:32:15.523Z,38.60
2019-04-20T08:34:56.422Z,39.20
2019-04-20T08:37:18.577Z,40.50
2019-04-20T08:39:57.417Z,41.80
2019-04-20T08:42:31.268Z,42.20
2019-04-20T08:45:04.133Z,42.40
2019-04-20T08:47:45.887Z,40.90
2019-04-20T08:50:25.245Z,41.50
2019-04-20T08:53:14.708Z,41.70
2019-04-20T08:55:33.483Z,41.10
2019-04-20T08:57:49.318Z,41.40
2019-04-20T09:00:33.106Z,41.30
2019-04-20T09:03:05.719Z,41.40
2019-04-20T09:05:43.769Z,39.80
2019-04-20T09:08:14.395Z,36.80
2019-04-20T09:10:56.578Z,36.70
2019-04-20T09:13:25.965Z,37.70
2019-04-20T09:15:45.333Z,39.30
2019-04-20T09:18:34.295Z,38.00
2019-04-20T09:21:09.725Z,38.50
2019-04-20T09:23:50.554Z,40.50
2019-04-20T09:26:34.234Z,40.20
2019-04-20T09:29:05.405Z,38.70
2019-04-20T09:31:44.836Z,37.90
2019-04-20T09:34:34.135Z,38.30
2019-04-20T09:37:45.421Z,41.40
2019-04-20T09:40:21.294Z,42.30
2019-04-20T09:43:02.323Z,43.00
2019-04-20T09:45:48.564Z,43.50
2019-04-20T09:48:27.348Z,44.30
2019-04-20T09:51:12.692Z,43.10
2019-04-20T09:53:36.004Z,42.60
2019-04-20T09:56:11.703Z,41.70
2019-04-20T09:58:39.713Z,42.60
2019-04-20T10:01:12.385Z,43.70
2019-04-20T10:03:28.961Z,43.70
2019-04-20T10:05:59.280Z,42.60
2019-04-20T10:08:29.369Z,43.20
2019-04-20T10:10:59.482Z,43.10
2019-04-20T10:13:30.139Z,40.00
2019-04-20T10:15:59.844Z,40.10
2019-04-20T10:18:40.580Z,42.20
2019-04-20T10:21:20.093Z,44.00
2019-04-20T10:23:50.444Z,44.30
2019-04-20T10:26:24.761Z,43.00
2019-04-20T10:28:55.199Z,42.30
2019-04-20T10:31:24.897Z,43.20
2019-04-20T10:33:55.633Z,43.90
2019-04-20T10:36:35.583Z,43.00
2019-04-20T10:39:06.592Z,42.90
2019-04-20T10:41:45.275Z,42.00
2019-04-20T10:44:11.224Z,41.00
2019-04-20T10:46:49.044Z,40.60
2019-04-20T10:49:19.388Z,41.90
2019-04-20T10:51:49.565Z,41.00
2019-04-20T10:54:20.233Z,39.30
2019-04-20T10:56:49.993Z,36.70
2019-04-20T10:59:23.614Z,34.70
2019-04-20T11:01:57.992Z,31.90
2019-04-20T11:04:28.888Z,29.30
2019-04-20T11:07:00.823Z,27.40
2019-04-20T11:09:34.481Z,26.20
2019-04-20T11:12:08.299Z,25.20
2019-04-20T11:14:44.392Z,24.80
2019-04-20T11:17:20.342Z,24.90
2019-04-20T11:19:51.592Z,24.90
2019-04-20T11:22:22.605Z,24.70
2019-04-20T11:24:56.568Z,24.40
2019-04-20T11:27:36.369Z,24.40
2019-04-20T11:30:10.417Z,24.40
2019-04-20T11:32:42.158Z,24.50
2019-04-20T11:35:22.867Z,24.10
2019-04-20T11:37:47.019Z,23.90
2019-04-20T11:40:19.105Z,23.80
2019-04-20T11:42:53.479Z,23.60
2019-04-20T11:45:24.733Z,23.70
2019-04-20T11:47:57.829Z,23.90
2019-04-20T11:50:29.566Z,24.10
2019-04-20T11:53:01.909Z,24.20
2019-04-20T11:55:34.009Z,23.90
2019-04-20T11:58:05.907Z,23.50
2019-04-20T12:00:53.248Z,23.40
2019-04-20T12:03:25.083Z,23.40
2019-04-20T12:05:55.300Z,23.50
2019-04-20T12:08:24.995Z,23.40
2019-04-20T12:10:59.603Z,23.20
2019-04-20T12:13:28.989Z,23.20
2019-04-20T12:16:01.443Z,23.20
2019-04-20T12:18:35.840Z,23.30
2019-04-20T12:21:06.785Z,23.30
2019-04-20T12:23:38.257Z,23.20
2019-04-20T12:26:09.205Z,23.10
2019-04-20T12:28:40.116Z,23.10
2019-04-20T12:31:15.243Z,23.40
2019-04-20T12:33:44.345Z,23.40
2019-04-20T12:36:18.335Z,23.60
2019-04-20T12:38:51.015Z,23.70
2019-04-20T12:41:36.593Z,23.80
2019-04-20T12:43:56.134Z,23.70
2019-04-20T12:46:28.090Z,23.40
2019-04-20T12:48:59.774Z,23.00
2019-04-20T12:51:39.835Z,22.90
2019-04-20T12:54:02.908Z,22.90
2019-04-20T12:56:34.846Z,22.90
2019-04-20T12:59:05.666Z,22.90
2019-04-20T13:01:37.409Z,23.10
2019-04-20T13:04:09.438Z,23.30
2019-04-20T13:06:41.006Z,23.40
2019-04-20T13:09:12.736Z,23.30
2019-04-20T13:12:11.674Z,23.20
2019-04-20T13:16:02.595Z,23.10
2019-04-20T13:18:41.248Z,23.00
2019-04-20T13:21:13.161Z,23.00
2019-04-20T13:23:44.936Z,22.90
2019-04-20T13:26:17.394Z,22.80
2019-04-20T13:28:48.750Z,22.80
2019-04-20T13:31:19.954Z,22.80
2019-04-20T13:33:51.614Z,22.80
2019-04-20T13:36:22.462Z,22.90
2019-04-20T13:38:54.310Z,22.80
2019-04-20T13:41:24.949Z,22.70
2019-04-20T13:43:57.812Z,22.70
2019-04-20T13:46:29.167Z,22.60
2019-04-20T13:49:00.759Z,22.60
2019-04-20T13:51:32.847Z,22.70
2019-04-20T13:54:06.279Z,22.70
2019-04-20T13:56:37.568Z,22.70
2019-04-20T13:59:19.758Z,22.60
2019-04-20T14:02:18.699Z,22.70
2019-04-20T14:04:52.932Z,22.60
2019-04-20T14:07:24.315Z,22.70
2019-04-20T14:09:57.988Z,22.80
2019-04-20T14:12:35.106Z,22.90
2019-04-20T14:15:01.479Z,23.00
2019-04-20T14:17:34.974Z,22.90
2019-04-20T14:20:11.668Z,22.70
2019-04-20T14:22:39.013Z,22.60
2019-04-20T14:25:11.060Z,22.70
2019-04-20T14:27:42.665Z,22.70
2019-04-20T14:30:15.206Z,22.80
2019-04-20T14:32:47.966Z,22.80
2019-04-20T14:35:18.796Z,22.70
2019-04-20T14:37:49.975Z,22.70
2019-04-20T14:40:21.997Z,22.60
2019-04-20T14:42:54.811Z,22.60
2019-04-20T14:45:25.231Z,22.60
2019-04-20T14:47:57.388Z,22.60
2019-04-20T14:50:29.720Z,22.70
2019-04-20T14:53:01.755Z,22.60
2019-04-20T14:55:33.428Z,22.60
2019-04-20T14:58:08.397Z,22.50
2019-04-20T15:00:51.322Z,22.50
2019-04-20T15:03:33.141Z,22.50
2019-04-20T15:06:05.515Z,22.40
2019-04-20T15:08:36.882Z,22.30
2019-04-20T15:11:09.120Z,22.30
2019-04-20T15:13:40.632Z,22.10
2019-04-20T15:16:13.191Z,22.10
2019-04-20T15:18:49.117Z,22.00
2019-04-20T15:21:21.678Z,21.90
2019-04-20T15:23:53.287Z,21.90
2019-04-20T15:26:26.958Z,21.90
2019-04-20T15:28:57.725Z,21.90
2019-04-20T15:31:28.444Z,21.90
2019-04-20T15:33:59.179Z,21.90
2019-04-20T15:36:29.785Z,21.80
2019-04-20T15:39:01.074Z,21.70
2019-04-20T15:41:31.808Z,21.70
2019-04-20T15:44:03.661Z,21.60
2019-04-20T15:46:35.284Z,21.60
2019-04-20T15:49:08.236Z,21.60
2019-04-20T15:51:39.767Z,21.60
2019-04-20T15:54:11.526Z,21.50
2019-04-20T15:56:49.803Z,21.40
2019-04-20T15:59:14.872Z,21.40
2019-04-20T16:01:51.318Z,21.30
2019-04-20T16:05:00.634Z,21.20
2019-04-20T16:07:41.897Z,21.10
2019-04-20T16:10:05.254Z,21.10
2019-04-20T16:12:36.016Z,21.00
2019-04-20T16:15:07.508Z,21.00
2019-04-20T16:17:43.244Z,21.10
2019-04-20T16:20:14.711Z,20.90
2019-04-20T16:22:44.674Z,20.90
2019-04-20T16:25:25.725Z,20.90
2019-04-20T16:27:56.342Z,20.90
2019-04-20T16:30:27.609Z,20.90
2019-04-20T16:32:58.698Z,20.80
2019-04-20T16:35:29.416Z,20.70
2019-04-20T16:38:00.447Z,20.70
2019-04-20T16:40:31.569Z,20.70
2019-04-20T16:43:06.275Z,20.60
2019-04-20T16:45:35.106Z,20.50
2019-04-20T16:48:06.773Z,20.40
2019-04-20T16:50:38.039Z,20.40
2019-04-20T16:53:08.958Z,20.30
2019-04-20T16:55:40.861Z,20.30
2019-04-20T16:58:11.862Z,20.30
2019-04-20T17:00:43.247Z,20.20
2019-04-20T17:03:15.243Z,20.10
2019-04-20T17:05:48.522Z,20.10
2019-04-20T17:08:18.792Z,20.10
2019-04-20T17:10:49.428Z,20.10
2019-04-20T17:13:31.894Z,20.00
2019-04-20T17:15:52.499Z,19.90
2019-04-20T17:18:23.538Z,19.80
2019-04-20T17:20:54.860Z,19.80
2019-04-20T17:23:25.581Z,19.80
2019-04-20T17:25:57.904Z,19.70
2019-04-20T17:29:06.041Z,19.60
2019-04-20T17:31:58.073Z,19.50
2019-04-20T17:34:44.426Z,19.40
2019-04-20T17:37:02.329Z,19.30
2019-04-20T17:39:45.567Z,19.20
2019-04-20T17:42:25.004Z,19.20
2019-04-20T17:44:51.796Z,19.10
2019-04-20T17:47:35.048Z,19.10
2019-04-20T17:50:03.584Z,19.00
2019-04-20T17:52:41.502Z,18.90
2019-04-20T17:54:57.775Z,18.70
2019-04-20T17:57:29.065Z,18.70
2019-04-20T18:00:15.724Z,18.60
2019-04-20T18:03:03.299Z,18.50
2019-04-20T18:05:58.380Z,18.30
2019-04-20T18:08:27.140Z,18.20
2019-04-20T18:10:54.133Z,18.20
2019-04-20T18:13:18.506Z,18.10
2019-04-20T18:16:05.168Z,18.20
2019-04-20T18:18:49.254Z,18.10
2019-04-20T18:21:24.454Z,17.90
2019-04-20T18:23:56.271Z,17.80
2019-04-20T18:26:48.143Z,17.90
2019-04-20T18:29:20.929Z,17.70
2019-04-20T18:31:49.428Z,17.70
2019-04-20T18:34:29.286Z,17.60
2019-04-20T18:37:05.480Z,17.50
2019-04-20T18:39:38.394Z,17.30
2019-04-20T18:42:14.274Z,17.10
2019-04-20T18:44:57.270Z,16.90
2019-04-20T18:47:29.070Z,16.90
2019-04-20T18:49:52.815Z,16.90
2019-04-20T18:52:15.700Z,16.70
2019-04-20T18:54:49.724Z,16.70
2019-04-20T18:57:23.257Z,16.60
2019-04-20T18:59:54.654Z,16.40
2019-04-20T19:02:29.318Z,16.30
2019-04-20T19:04:58.593Z,16.30
2019-04-20T19:07:33.361Z,16.10
2019-04-20T19:10:12.893Z,16.10
2019-04-20T19:12:43.944Z,16.10
2019-04-20T19:15:53.370Z,15.90
2019-04-20T19:18:49.486Z,15.80
2019-04-20T19:21:12.977Z,15.80
2019-04-20T19:23:54.866Z,15.70
2019-04-20T19:26:25.577Z,15.60
2019-04-20T19:29:15.642Z,15.50
2019-04-20T19:32:05.671Z,15.40
2019-04-20T19:34:33.548Z,15.20
2019-04-20T19:37:13.733Z,15.20
2019-04-20T19:39:43.701Z,15.10
2019-04-20T19:42:21.970Z,15.20
2019-04-20T19:44:58.032Z,15.20
2019-04-20T19:47:46.933Z,15.20
2019-04-20T19:50:35.545Z,15.30
2019-04-20T19:53:16.555Z,15.20
2019-04-20T19:55:45.164Z,15.20
2019-04-20T19:58:30.338Z,15.10
2019-04-20T20:01:07.626Z,15.00
2019-04-20T20:03:58.779Z,15.00
2019-04-20T20:06:39.156Z,14.90
2019-04-20T20:09:14.582Z,14.80
2019-04-20T20:11:56.072Z,14.70
2019-04-20T20:14:36.433Z,14.60
2019-04-20T20:17:28.517Z,14.60
2019-04-20T20:20:06.978Z,14.50
2019-04-20T20:22:27.686Z,14.50
2019-04-20T20:24:52.741Z,14.50
2019-04-20T20:27:33.944Z,14.50
2019-04-20T20:30:10.744Z,14.40
2019-04-20T20:32:59.452Z,14.30
2019-04-20T20:35:23.524Z,14.20
2019-04-20T20:37:57.840Z,14.10
2019-04-20T20:40:34.736Z,14.00
2019-04-20T20:43:10.700Z,14.00
2019-04-20T20:45:42.153Z,13.90
2019-04-20T20:48:24.467Z,13.90
2019-04-20T20:51:05.235Z,13.80
2019-04-20T20:53:41.429Z,13.70
2019-04-20T20:56:09.251Z,13.50
2019-04-20T20:58:43.901Z,13.50
2019-04-20T21:01:18.468Z,13.60
2019-04-20T21:03:48.871Z,13.60
2019-04-20T21:06:20.678Z,13.50
2019-04-20T21:08:53.848Z,13.50
2019-04-20T21:11:31.456Z,13.50
2019-04-20T21:14:01.341Z,13.60
2019-04-20T21:16:42.537Z,13.50
2019-04-20T21:19:45.313Z,13.50
2019-04-20T21:22:14.311Z,13.40
2019-04-20T21:24:51.015Z,13.40
2019-04-20T21:27:25.858Z,13.30
2019-04-20T21:29:58.697Z,13.30
2019-04-20T21:32:28.361Z,13.20
2019-04-20T21:35:06.953Z,13.10
2019-04-20T21:37:51.421Z,13.10
2019-04-20T21:40:27.843Z,13.20
2019-04-20T21:43:00.691Z,13.20
2019-04-20T21:45:32.597Z,13.10
2019-04-20T21:48:03.477Z,13.10
2019-04-20T21:50:56.524Z,13.00
2019-04-20T21:53:15.584Z,13.00
2019-04-20T21:55:43.734Z,12.90
2019-04-20T21:58:19.338Z,12.80
2019-04-20T22:01:10.910Z,12.80
2019-04-20T22:03:34.320Z,12.60
2019-04-20T22:06:10.756Z,12.50
2019-04-20T22:08:51.885Z,12.40
2019-04-20T22:11:19.982Z,12.50
2019-04-20T22:13:52.781Z,12.50
2019-04-20T22:16:25.922Z,12.50
2019-04-20T22:19:11.779Z,12.40
2019-04-20T22:21:46.250Z,12.30
2019-04-20T22:24:19.530Z,12.30
2019-04-20T22:26:51.598Z,12.30
2019-04-20T22:29:12.354Z,12.20
2019-04-20T22:31:56.747Z,12.10
2019-04-20T22:34:24.513Z,12.00
2019-04-20T22:36:52.228Z,11.90
2019-04-20T22:39:41.403Z,11.90
2019-04-20T22:42:14.974Z,11.90
2019-04-20T22:44:47.984Z,11.70
2019-04-20T22:47:25.479Z,11.70
2019-04-20T22:50:15.230Z,11.70
2019-04-20T22:52:40.847Z,11.60
2019-04-20T22:55:19.894Z,11.60
2019-04-20T22:57:48.776Z,11.50
2019-04-20T23:00:11.054Z,11.40
2019-04-20T23:02:42.707Z,11.30
2019-04-20T23:05:18.676Z,11.40
2019-04-20T23:07:52.664Z,11.30
2019-04-20T23:10:30.438Z,11.20
2019-04-20T23:12:59.506Z,11.00
2019-04-20T23:15:30.152Z,10.90
2019-04-20T23:18:02.098Z,10.80
2019-04-20T23:20:37.162Z,11.00
2019-04-20T23:23:10.432Z,10.90
2019-04-20T23:25:39.011Z,10.80
2019-04-20T23:28:14.743Z,10.70
2019-04-20T23:30:45.646Z,10.70
2019-04-20T23:33:16.394Z,10.60
2019-04-20T23:35:52.410Z,10.60
2019-04-20T23:38:22.610Z,10.60
2019-04-20T23:40:52.110Z,10.70
2019-04-20T23:43:30.488Z,10.70
2019-04-20T23:46:25.768Z,10.80
2019-04-20T23:49:18.722Z,10.90
2019-04-20T23:52:03.678Z,10.90
2019-04-20T23:54:25.403Z,10.80
2019-04-20T23:56:55.534Z,10.80
2019-04-20T23:59:32.529Z,10.70
